^^

NEARBY METAR REPORTS

KSQI - Sterling Rockfal, Illinois, USA
Distance from station: ESE 17mi, 27km
Updated: 10/17/2017 5:56pm
NOT Current
Clear
Clear
 Wind from calm
Wind: Calm
Temperature: 66°F , 19°C
Dew Point: 43°F , 6°C
Humidity: 43%
Clouds: Clear
Visibility: 10 miles , 16 km
2017/10/17 22:56 KSQI 172256Z AUTO 00000KT 10SM CLR 19/06 RMK AO2 SLPNO T01890056 $
KCWI - Clinton Muni, Iowa, USA
Distance from station: W 17mi, 28km
Updated: 10/17/2017 5:56pm
NOT Current
Clear
Clear
 Wind from SSW
Wind: SSW 9 mph , 15 km/h
Temperature: 64°F , 18°C
Dew Point: 45°F , 7°C
Humidity: 49%
Barometer: 30.10 inHg , 1019.3 hPa
Clouds: Clear
Visibility: 10 miles , 16 km
2017/10/17 22:56 KCWI 172256Z AUTO 20008KT 10SM CLR 18/07 A3010 RMK AO2 SLP218 T01780067
KSFY - Savanna/Tritown, Illinois, USA
Distance from station: NNW 17mi, 28km
Updated: 10/17/2017 6:35pm
Clear
Clear
 Wind from S
Wind: S 6 mph , 9 km/h
Temperature: 61°F , 16°C
Dew Point: 45°F , 7°C
Humidity: 55%
Barometer: 30.09 inHg , 1019 hPa
Clouds: Clear
Visibility: 10 miles , 16 km
2017/10/17 23:35 KSFY 172335Z AUTO 19005KT 10SM CLR 16/07 A3009 RMK AO2 T01560066
KDVN - Davenport/Quad C, Iowa, USA
Distance from station: WSW 34mi, 55km
Updated: 10/17/2017 5:52pm
NOT Current
Clear
Clear
 Wind from S
Wind: S 8 mph , 13 km/h
Temperature: 64°F , 18°C
Dew Point: 43°F , 6°C
Humidity: 46%
Barometer: 30.11 inHg , 1019.6 hPa
Clouds: Clear
Visibility: 10 miles , 16 km
2017/10/17 22:52 KDVN 172252Z AUTO 19007KT 10SM CLR 18/06 A3011 RMK AO2 SLP193 T01830056
KFEP - Freeport, Illinois, USA
Distance from station: NE 36mi, 58km
Updated: 10/17/2017 6:35pm
Clear
Clear
 Wind from SSW
Wind: SSW 6 mph , 9 km/h
Temperature: 59°F , 15°C
Dew Point: 41°F , 5°C
Humidity: 51%
Barometer: 30.11 inHg , 1019.6 hPa
Clouds: Clear
Visibility: 10 miles , 16 km
2017/10/17 23:35 KFEP 172335Z AUTO 21005KT 10SM CLR 15/05 A3011 RMK AO2 T01450045
KMLI - Moline/Quad City, Illinois, USA
Distance from station: SW 38mi, 61km
Updated: 10/17/2017 5:52pm
NOT Current
Clear
Clear
 Wind from SW
Wind: SW 6 mph , 9 km/h
Temperature: 66°F , 19°C
Dew Point: 43°F , 6°C
Humidity: 43%
Barometer: 30.09 inHg , 1019 hPa
Clouds: Clear
Visibility: 10 miles , 16 km
2017/10/17 22:52 KMLI 172252Z 22005KT 10SM CLR 19/06 A3009 RMK AO2 SLP190 T01890056
KRPJ - Rochelle/Koritz, Illinois, USA
Distance from station: E 46mi, 75km
Updated: 10/17/2017 6:35pm
Clear
Clear
 Wind from S
Wind: S 7 mph , 11 km/h
Temperature: 59°F , 15°C
Dew Point: 43°F , 6°C
Humidity: 55%
Barometer: 30.12 inHg , 1020 hPa
Clouds: Clear
Visibility: 10 miles , 16 km
2017/10/17 23:35 KRPJ 172335Z AUTO 19006KT 10SM CLR 15/06 A3012 RMK AO2 T01470060
KRFD - Rockford, Illinois, USA
Distance from station: ENE 52mi, 84km
Updated: 10/17/2017 5:54pm
NOT Current
Few Clouds
Few Clouds
 Wind from SSW
Wind: SSW 9 mph , 15 km/h
Temperature: 66°F , 19°C
Dew Point: 39°F , 4°C
Humidity: 37%
Barometer: 30.10 inHg , 1019.3 hPa
Clouds: Few Clouds
Visibility: 10 miles , 16 km
Cloud details: Few Clouds 25000 ft
2017/10/17 22:54 KRFD 172254Z 21008KT 10SM FEW250 19/04 A3010 RMK AO2 SLP194 T01940039 $
KVYS - Peru, Illinois, USA
Distance from station: SE 54mi, 86km
Updated: 10/17/2017 6:35pm
Clear
Clear
 Wind from SSW
Wind: SSW 8 mph , 13 km/h
Temperature: 59°F , 15°C
Dew Point: 41°F , 5°C
Humidity: 51%
Barometer: 30.14 inHg , 1020.7 hPa
Clouds: Clear
Visibility: 10 miles , 16 km
2017/10/17 23:35 KVYS 172335Z AUTO 20007KT 10SM CLR 15/05 A3014 RMK AO2 T01490046
KDBQ - Dubuque, Iowa, USA
Distance from station: NW 55mi, 88km
Updated: 10/17/2017 5:53pm
NOT Current
Clear
Clear
 Wind from SSW
Wind: SSW 12 mph , 19 km/h
Temperature: 64°F , 18°C
Dew Point: 43°F , 6°C
Humidity: 46%
Barometer: 30.06 inHg , 1017.9 hPa
Clouds: Clear
Visibility: 10 miles , 16 km
2017/10/17 22:53 KDBQ 172253Z 20010KT 10SM CLR 18/06 A3006 RMK AO2 SLP180 T01830061